sensor_id;sensor_type;location;lat;lon;timestamp;pressure;altitude;pressure_sealevel;temperature;humidity
75699;BME280;64313;51.018;13.742;2023-05-02T00:00:29;99507.75;;;14.19;60.32
75699;BME280;64313;51.018;13.742;2023-05-02T00:02:55;99514.97;;;14.18;60.32
75699;BME280;64313;51.018;13.742;2023-05-02T00:05:21;99515.41;;;14.15;61.19
75699;BME280;64313;51.018;13.742;2023-05-02T00:07:47;99522.44;;;14.16;60.52
75699;BME280;64313;51.018;13.742;2023-05-02T00:10:12;99520.44;;;14.12;61.75
75699;BME280;64313;51.018;13.742;2023-05-02T00:12:37;99510.97;;;14.09;60.94
75699;BME280;64313;51.018;13.742;2023-05-02T00:15:03;99518.22;;;14.09;61.05
75699;BME280;64313;51.018;13.742;2023-05-02T00:17:29;99521.34;;;14.05;61.28
75699;BME280;64313;51.018;13.742;2023-05-02T00:19:54;99515.34;;;14.03;61.51
75699;BME280;64313;51.018;13.742;2023-05-02T00:22:20;99528.78;;;14.03;61.53
75699;BME280;64313;51.018;13.742;2023-05-02T00:24:45;99515.97;;;14.05;61.34
75699;BME280;64313;51.018;13.742;2023-05-02T00:27:12;99515.97;;;14.05;60.71
75699;BME280;64313;51.018;13.742;2023-05-02T00:29:38;99521.78;;;14.02;61.45
75699;BME280;64313;51.018;13.742;2023-05-02T00:32:04;99528.22;;;14.01;61.02
75699;BME280;64313;51.018;13.742;2023-05-02T00:34:30;99532.41;;;13.97;61.55
75699;BME280;64313;51.018;13.742;2023-05-02T00:36:56;99529.34;;;13.94;61.90
75699;BME280;64313;51.018;13.742;2023-05-02T00:39:21;99536.56;;;13.93;62.41
75699;BME280;64313;51.018;13.742;2023-05-02T00:41:46;99543.59;;;13.94;62.11
75699;BME280;64313;51.018;13.742;2023-05-02T00:44:12;99535.75;;;13.93;62.11
75699;BME280;64313;51.018;13.742;2023-05-02T00:46:37;99540.09;;;13.94;62.27
75699;BME280;64313;51.018;13.742;2023-05-02T00:49:02;99530.38;;;13.93;61.51
75699;BME280;64313;51.018;13.742;2023-05-02T00:51:28;99534.72;;;13.94;62.14
75699;BME280;64313;51.018;13.742;2023-05-02T00:53:53;99539.25;;;13.93;61.54
75699;BME280;64313;51.018;13.742;2023-05-02T00:56:19;99533.06;;;13.93;62.22
75699;BME280;64313;51.018;13.742;2023-05-02T00:58:45;99537.63;;;13.92;61.40
75699;BME280;64313;51.018;13.742;2023-05-02T01:09:28;99544.19;;;13.78;62.93
75699;BME280;64313;51.018;13.742;2023-05-02T01:12:07;99533.69;;;13.76;62.69
75699;BME280;64313;51.018;13.742;2023-05-02T01:14:40;99540.69;;;13.77;63.08
75699;BME280;64313;51.018;13.742;2023-05-02T01:17:09;99540.69;;;13.77;62.52
75699;BME280;64313;51.018;13.742;2023-05-02T01:19:38;99535.13;;;13.79;62.16
75699;BME280;64313;51.018;13.742;2023-05-02T01:22:07;99535.13;;;13.79;62.10
75699;BME280;64313;51.018;13.742;2023-05-02T01:24:39;99528.91;;;13.78;62.18
75699;BME280;64313;51.018;13.742;2023-05-02T01:27:17;99523.31;;;13.80;61.49
75699;BME280;64313;51.018;13.742;2023-05-02T01:29:49;99524.38;;;13.79;62.23
75699;BME280;64313;51.018;13.742;2023-05-02T01:32:15;99529.75;;;13.79;62.78
75699;BME280;64313;51.018;13.742;2023-05-02T01:34:45;99526.44;;;13.77;62.58
75699;BME280;64313;51.018;13.742;2023-05-02T01:37:12;99528.31;;;13.76;62.28
75699;BME280;64313;51.018;13.742;2023-05-02T01:39:41;99525.84;;;13.75;62.46
75699;BME280;64313;51.018;13.742;2023-05-02T01:42:06;99531.22;;;13.75;62.43
75699;BME280;64313;51.018;13.742;2023-05-02T01:44:33;99527.94;;;13.73;62.64
75699;BME280;64313;51.018;13.742;2023-05-02T01:47:01;99530.63;;;13.73;62.75
75699;BME280;64313;51.018;13.742;2023-05-02T01:49:31;99525.25;;;13.73;62.41
75699;BME280;64313;51.018;13.742;2023-05-02T01:52:01;99522.56;;;13.73;62.61
75699;BME280;64313;51.018;13.742;2023-05-02T01:54:29;99531.69;;;13.72;62.63
75699;BME280;64313;51.018;13.742;2023-05-02T01:56:55;99529.88;;;13.66;62.46
75699;BME280;64313;51.018;13.742;2023-05-02T01:59:23;99529.88;;;13.66;62.38
75699;BME280;64313;51.018;13.742;2023-05-02T02:01:50;99529.28;;;13.63;62.96
75699;BME280;64313;51.018;13.742;2023-05-02T02:04:18;99534.28;;;13.60;62.89
75699;BME280;64313;51.018;13.742;2023-05-02T02:06:54;99530.78;;;13.59;63.01
75699;BME280;64313;51.018;13.742;2023-05-02T02:09:22;99531.59;;;13.60;63.38
75699;BME280;64313;51.018;13.742;2023-05-02T02:12:01;99539.44;;;13.61;62.58
75699;BME280;64313;51.018;13.742;2023-05-02T02:14:36;99534.53;;;13.58;62.63
75699;BME280;64313;51.018;13.742;2023-05-02T02:17:05;99537.41;;;13.57;63.48
75699;BME280;64313;51.018;13.742;2023-05-02T02:19:36;99540.31;;;13.55;63.33
75699;BME280;64313;51.018;13.742;2023-05-02T02:22:03;99538.47;;;13.56;62.96
75699;BME280;64313;51.018;13.742;2023-05-02T02:24:31;99549.78;;;13.58;63.20
75699;BME280;64313;51.018;13.742;2023-05-02T02:26:56;99543.00;;;13.55;63.19
75699;BME280;64313;51.018;13.742;2023-05-02T02:29:22;99536.00;;;13.54;63.33
75699;BME280;64313;51.018;13.742;2023-05-02T02:31:47;99549.22;;;13.56;62.56
75699;BME280;64313;51.018;13.742;2023-05-02T02:34:13;99549.44;;;13.54;62.42
75699;BME280;64313;51.018;13.742;2023-05-02T02:36:52;99558.97;;;13.50;62.95
75699;BME280;64313;51.018;13.742;2023-05-02T02:39:57;99562.09;;;13.47;63.16
75699;BME280;64313;51.018;13.742;2023-05-02T02:42:32;99560.47;;;13.46;62.56
75699;BME280;64313;51.018;13.742;2023-05-02T02:48:03;99569.19;;;13.41;63.05
75699;BME280;64313;51.018;13.742;2023-05-02T02:50:33;99577.22;;;13.41;63.66
75699;BME280;64313;51.018;13.742;2023-05-02T02:53:14;99581.53;;;13.42;63.84
75699;BME280;64313;51.018;13.742;2023-05-02T02:58:29;99582.81;;;13.40;63.31
75699;BME280;64313;51.018;13.742;2023-05-02T03:00:56;99595.22;;;13.41;63.15
75699;BME280;64313;51.018;13.742;2023-05-02T03:03:23;99588.19;;;13.40;63.11
75699;BME280;64313;51.018;13.742;2023-05-02T03:05:54;99593.56;;;13.40;63.05
75699;BME280;64313;51.018;13.742;2023-05-02T03:08:21;99586.56;;;13.39;62.13
75699;BME280;64313;51.018;13.742;2023-05-02T03:10:46;99591.31;;;13.37;62.07
75699;BME280;64313;51.018;13.742;2023-05-02T03:13:12;99597.50;;;13.37;61.79
75699;BME280;64313;51.018;13.742;2023-05-02T03:18:20;99602.50;;;13.34;61.59
75699;BME280;64313;51.018;13.742;2023-05-02T03:20:45;99604.94;;;13.35;61.51
75699;BME280;64313;51.018;13.742;2023-05-02T03:23:11;99607.88;;;13.34;61.58
75699;BME280;64313;51.018;13.742;2023-05-02T03:25:38;99607.88;;;13.34;61.64
75699;BME280;64313;51.018;13.742;2023-05-02T03:28:04;99611.38;;;13.34;61.56
75699;BME280;64313;51.018;13.742;2023-05-02T03:30:30;99615.69;;;13.35;61.27
75699;BME280;64313;51.018;13.742;2023-05-02T03:32:55;99615.91;;;13.34;61.36
75699;BME280;64313;51.018;13.742;2023-05-02T03:35:21;99623.16;;;13.33;61.28
75699;BME280;64313;51.018;13.742;2023-05-02T03:37:48;99622.31;;;13.33;61.07
75699;BME280;64313;51.018;13.742;2023-05-02T03:40:15;99630.81;;;13.30;61.19
75699;BME280;64313;51.018;13.742;2023-05-02T03:42:40;99631.06;;;13.28;61.34
75699;BME280;64313;51.018;13.742;2023-05-02T03:45:16;99635.56;;;13.28;61.44
75699;BME280;64313;51.018;13.742;2023-05-02T03:47:42;99629.00;;;13.24;61.44
75699;BME280;64313;51.018;13.742;2023-05-02T03:50:07;99627.31;;;13.23;61.60
75699;BME280;64313;51.018;13.742;2023-05-02T03:52:33;99630.25;;;13.21;61.59
75699;BME280;64313;51.018;13.742;2023-05-02T03:55:00;99643.88;;;13.19;61.43
75699;BME280;64313;51.018;13.742;2023-05-02T03:57:28;99644.09;;;13.18;61.93
75699;BME280;64313;51.018;13.742;2023-05-02T03:59:54;99644.16;;;13.11;61.70
75699;BME280;64313;51.018;13.742;2023-05-02T04:02:25;99648.91;;;13.09;62.12
75699;BME280;64313;51.018;13.742;2023-05-02T04:04:51;99651.78;;;13.08;62.28
75699;BME280;64313;51.018;13.742;2023-05-02T04:07:19;99656.34;;;13.07;61.78
75699;BME280;64313;51.018;13.742;2023-05-02T04:09:48;99660.06;;;13.06;62.50
75699;BME280;64313;51.018;13.742;2023-05-02T04:12:14;99659.91;;;13.01;62.55
75699;BME280;64313;51.018;13.742;2023-05-02T04:14:42;99661.78;;;13.01;62.34
75699;BME280;64313;51.018;13.742;2023-05-02T04:17:08;99668.97;;;13.00;62.22
75699;BME280;64313;51.018;13.742;2023-05-02T04:19:43;99676.28;;;12.93;62.88
75699;BME280;64313;51.018;13.742;2023-05-02T04:22:09;99693.19;;;12.93;62.48
75699;BME280;64313;51.018;13.742;2023-05-02T04:24:38;99695.06;;;12.93;62.79
75699;BME280;64313;51.018;13.742;2023-05-02T04:27:03;99697.72;;;12.93;62.98
75699;BME280;64313;51.018;13.742;2023-05-02T04:29:30;99701.06;;;12.88;62.75
75699;BME280;64313;51.018;13.742;2023-05-02T04:31:55;99703.50;;;12.90;63.31
75699;BME280;64313;51.018;13.742;2023-05-02T04:34:23;99709.72;;;12.90;63.08
75699;BME280;64313;51.018;13.742;2023-05-02T04:36:49;99723.13;;;12.90;62.95
75699;BME280;64313;51.018;13.742;2023-05-02T04:39:19;99727.06;;;12.88;63.58
75699;BME280;64313;51.018;13.742;2023-05-02T04:41:55;99728.91;;;12.87;63.55
75699;BME280;64313;51.018;13.742;2023-05-02T04:44:23;99736.94;;;12.87;63.65
75699;BME280;64313;51.018;13.742;2023-05-02T04:46:48;99737.38;;;12.84;63.42
75699;BME280;64313;51.018;13.742;2023-05-02T04:49:14;99737.19;;;12.86;63.14
75699;BME280;64313;51.018;13.742;2023-05-02T04:51:39;99740.88;;;12.85;63.82
75699;BME280;64313;51.018;13.742;2023-05-02T04:54:05;99750.63;;;12.79;63.95
75699;BME280;64313;51.018;13.742;2023-05-02T04:56:31;99752.28;;;12.80;63.64
75699;BME280;64313;51.018;13.742;2023-05-02T04:58:56;99753.53;;;12.77;63.79
75699;BME280;64313;51.018;13.742;2023-05-02T05:01:21;99761.34;;;12.79;64.01
75699;BME280;64313;51.018;13.742;2023-05-02T05:03:49;99758.47;;;12.81;63.66
75699;BME280;64313;51.018;13.742;2023-05-02T05:06:16;99761.56;;;12.77;63.78
75699;BME280;64313;51.018;13.742;2023-05-02T05:08:41;99764.03;;;12.79;63.40
75699;BME280;64313;51.018;13.742;2023-05-02T05:11:09;99764.84;;;12.80;63.58
75699;BME280;64313;51.018;13.742;2023-05-02T05:13:35;99770.19;;;12.80;63.85
75699;BME280;64313;51.018;13.742;2023-05-02T05:16:02;99773.94;;;12.78;64.07
75699;BME280;64313;51.018;13.742;2023-05-02T05:18:31;99780.34;;;12.77;64.38
75699;BME280;64313;51.018;13.742;2023-05-02T05:20:56;99786.53;;;12.78;63.95
75699;BME280;64313;51.018;13.742;2023-05-02T05:23:22;99790.03;;;12.78;64.14
75699;BME280;64313;51.018;13.742;2023-05-02T05:25:47;99797.03;;;12.80;63.86
75699;BME280;64313;51.018;13.742;2023-05-02T05:28:15;99793.31;;;12.81;63.98
75699;BME280;64313;51.018;13.742;2023-05-02T05:30:42;99793.09;;;12.82;63.54
75699;BME280;64313;51.018;13.742;2023-05-02T05:33:10;99800.94;;;12.84;63.53
75699;BME280;64313;51.018;13.742;2023-05-02T05:35:36;99799.31;;;12.83;63.98
75699;BME280;64313;51.018;13.742;2023-05-02T05:38:01;99806.75;;;12.81;63.71
75699;BME280;64313;51.018;13.742;2023-05-02T05:40:29;99805.50;;;12.83;63.37
75699;BME280;64313;51.018;13.742;2023-05-02T05:42:56;99810.03;;;12.83;63.84
75699;BME280;64313;51.018;13.742;2023-05-02T05:45:27;99807.56;;;12.81;63.83
75699;BME280;64313;51.018;13.742;2023-05-02T05:47:53;99814.34;;;12.84;63.91
75699;BME280;64313;51.018;13.742;2023-05-02T05:50:19;99821.59;;;12.83;64.32
75699;BME280;64313;51.018;13.742;2023-05-02T05:52:48;99821.78;;;12.82;63.63
75699;BME280;64313;51.018;13.742;2023-05-02T05:55:13;99822.41;;;12.84;63.91
75699;BME280;64313;51.018;13.742;2023-05-02T05:57:38;99828.38;;;12.86;63.46
75699;BME280;64313;51.018;13.742;2023-05-02T06:00:04;99829.59;;;12.90;63.54
75699;BME280;64313;51.018;13.742;2023-05-02T06:02:40;99838.25;;;12.92;63.41
75699;BME280;64313;51.018;13.742;2023-05-02T06:05:06;99840.94;;;12.92;63.38
75699;BME280;64313;51.018;13.742;2023-05-02T06:07:31;99848.00;;;12.86;63.59
75699;BME280;64313;51.018;13.742;2023-05-02T06:09:57;99851.06;;;12.90;63.83
75699;BME280;64313;51.018;13.742;2023-05-02T06:12:22;99853.34;;;12.93;62.58
75699;BME280;64313;51.018;13.742;2023-05-02T06:14:48;99853.53;;;12.98;63.11
75699;BME280;64313;51.018;13.742;2023-05-02T06:17:13;99864.47;;;12.96;63.41
75699;BME280;64313;51.018;13.742;2023-05-02T06:19:39;99863.22;;;12.99;63.00
75699;BME280;64313;51.018;13.742;2023-05-02T06:22:05;99865.47;;;13.02;62.84
75699;BME280;64313;51.018;13.742;2023-05-02T06:24:30;99870.66;;;13.04;61.97
75699;BME280;64313;51.018;13.742;2023-05-02T06:26:55;99878.06;;;13.08;62.31
75699;BME280;64313;51.018;13.742;2023-05-02T06:29:21;99880.94;;;13.13;62.56
75699;BME280;64313;51.018;13.742;2023-05-02T06:31:46;99892.47;;;13.20;62.41
75699;BME280;64313;51.018;13.742;2023-05-02T06:34:11;99894.72;;;13.24;61.99
75699;BME280;64313;51.018;13.742;2023-05-02T06:36:37;99893.47;;;13.26;62.59
75699;BME280;64313;51.018;13.742;2023-05-02T06:39:02;99899.88;;;13.32;62.62
75699;BME280;64313;51.018;13.742;2023-05-02T06:41:28;99904.44;;;13.31;62.40
75699;BME280;64313;51.018;13.742;2023-05-02T06:43:53;99917.22;;;13.36;62.35
75699;BME280;64313;51.018;13.742;2023-05-02T06:46:18;99918.44;;;13.40;62.70
75699;BME280;64313;51.018;13.742;2023-05-02T06:48:44;99922.78;;;13.41;62.04
75699;BME280;64313;51.018;13.742;2023-05-02T06:51:13;99923.41;;;13.43;61.93
75699;BME280;64313;51.018;13.742;2023-05-02T06:53:38;99923.78;;;13.47;61.62
75699;BME280;64313;51.018;13.742;2023-05-02T06:56:04;99925.03;;;13.44;61.77
75699;BME280;64313;51.018;13.742;2023-05-02T06:58:30;99922.16;;;13.46;61.50
75699;BME280;64313;51.018;13.742;2023-05-02T07:00:55;99930.78;;;13.48;61.29
75699;BME280;64313;51.018;13.742;2023-05-02T07:03:21;99934.31;;;13.48;61.55
75699;BME280;64313;51.018;13.742;2023-05-02T07:05:46;99932.47;;;13.49;61.30
75699;BME280;64313;51.018;13.742;2023-05-02T07:08:11;99941.97;;;13.51;59.45
75699;BME280;64313;51.018;13.742;2023-05-02T07:10:37;99944.84;;;13.50;58.57
75699;BME280;64313;51.018;13.742;2023-05-02T07:13:02;99951.88;;;13.51;59.47
75699;BME280;64313;51.018;13.742;2023-05-02T07:15:27;99957.63;;;13.54;59.80
75699;BME280;64313;51.018;13.742;2023-05-02T07:17:53;99953.31;;;13.53;59.14
75699;BME280;64313;51.018;13.742;2023-05-02T07:20:18;99960.94;;;13.56;59.48
75699;BME280;64313;51.018;13.742;2023-05-02T07:22:44;99968.56;;;13.59;59.42
75699;BME280;64313;51.018;13.742;2023-05-02T07:25:09;99964.63;;;13.62;59.33
75699;BME280;64313;51.018;13.742;2023-05-02T07:27:35;99967.13;;;13.63;58.08
75699;BME280;64313;51.018;13.742;2023-05-02T07:30:00;99976.81;;;13.64;58.53
75699;BME280;64313;51.018;13.742;2023-05-02T07:32:26;99971.06;;;13.61;58.58
75699;BME280;64313;51.018;13.742;2023-05-02T07:34:51;99975.16;;;13.63;59.18
75699;BME280;64313;51.018;13.742;2023-05-02T07:37:21;99977.84;;;13.63;58.44
75699;BME280;64313;51.018;13.742;2023-05-02T07:39:46;99990.25;;;13.64;58.43
75699;BME280;64313;51.018;13.742;2023-05-02T07:42:11;99996.44;;;13.65;58.27
75699;BME280;64313;51.018;13.742;2023-05-02T07:44:37;100002.63;;;13.66;58.50
75699;BME280;64313;51.018;13.742;2023-05-02T07:47:02;100008.00;;;13.66;59.32
75699;BME280;64313;51.018;13.742;2023-05-02T07:49:27;100012.34;;;13.67;59.26
75699;BME280;64313;51.018;13.742;2023-05-02T07:51:53;100016.69;;;13.68;59.82
75699;BME280;64313;51.018;13.742;2023-05-02T07:54:20;100022.91;;;13.61;59.77
75699;BME280;64313;51.018;13.742;2023-05-02T07:56:50;100025.16;;;13.58;59.29
75699;BME280;64313;51.018;13.742;2023-05-02T07:59:15;100029.09;;;13.55;59.62
75699;BME280;64313;51.018;13.742;2023-05-02T08:01:40;100029.97;;;13.49;60.21
75699;BME280;64313;51.018;13.742;2023-05-02T08:04:06;100033.91;;;13.47;59.87
75699;BME280;64313;51.018;13.742;2023-05-02T08:06:32;100036.38;;;13.48;60.42
75699;BME280;64313;51.018;13.742;2023-05-02T08:08:58;100043.78;;;13.53;60.62
75699;BME280;64313;51.018;13.742;2023-05-02T08:11:23;100043.38;;;13.49;60.16
75699;BME280;64313;51.018;13.742;2023-05-02T08:13:52;100047.72;;;13.50;60.00
75699;BME280;64313;51.018;13.742;2023-05-02T08:16:18;100048.56;;;13.51;60.24
75699;BME280;64313;51.018;13.742;2023-05-02T08:18:44;100053.94;;;13.51;60.37
75699;BME280;64313;51.018;13.742;2023-05-02T08:21:10;100050.59;;;13.55;60.89
75699;BME280;64313;51.018;13.742;2023-05-02T08:23:35;100064.63;;;13.64;60.69
75699;BME280;64313;51.018;13.742;2023-05-02T08:26:02;100051.41;;;13.69;60.71
75699;BME280;64313;51.018;13.742;2023-05-02T08:28:27;100057.97;;;13.73;60.73
75699;BME280;64313;51.018;13.742;2023-05-02T08:30:53;100067.69;;;13.81;60.63
75699;BME280;64313;51.018;13.742;2023-05-02T08:33:18;100067.22;;;13.91;60.76
75699;BME280;64313;51.018;13.742;2023-05-02T08:35:43;100070.69;;;14.04;60.99
75699;BME280;64313;51.018;13.742;2023-05-02T08:38:09;100072.13;;;14.14;60.52
75699;BME280;64313;51.018;13.742;2023-05-02T08:40:36;100074.38;;;14.17;59.99
75699;BME280;64313;51.018;13.742;2023-05-02T08:43:02;100071.88;;;14.22;59.73
75699;BME280;64313;51.018;13.742;2023-05-02T08:45:30;100076.81;;;14.25;59.31
75699;BME280;64313;51.018;13.742;2023-05-02T08:48:04;100075.94;;;14.31;60.10
75699;BME280;64313;51.018;13.742;2023-05-02T08:50:32;100073.03;;;14.33;59.40
75699;BME280;64313;51.018;13.742;2023-05-02T08:53:03;100084.19;;;14.36;59.23
75699;BME280;64313;51.018;13.742;2023-05-02T08:55:29;100087.50;;;14.38;59.00
75699;BME280;64313;51.018;13.742;2023-05-02T08:57:56;100086.22;;;14.41;59.05
75699;BME280;64313;51.018;13.742;2023-05-02T09:00:22;100091.41;;;14.42;59.52
75699;BME280;64313;51.018;13.742;2023-05-02T09:03:10;100097.84;;;14.41;58.79
75699;BME280;64313;51.018;13.742;2023-05-02T09:05:41;100094.31;;;14.41;58.78
75699;BME280;64313;51.018;13.742;2023-05-02T09:08:07;100105.69;;;14.43;58.63
75699;BME280;64313;51.018;13.742;2023-05-02T09:10:36;100107.13;;;14.45;57.73
75699;BME280;64313;51.018;13.742;2023-05-02T09:13:29;100109.81;;;14.45;57.72
75699;BME280;64313;51.018;13.742;2023-05-02T09:16:03;100109.78;;;14.52;58.31
75699;BME280;64313;51.018;13.742;2023-05-02T09:18:37;100121.19;;;14.54;57.33
75699;BME280;64313;51.018;13.742;2023-05-02T09:21:08;100102.34;;;14.54;57.82
75699;BME280;64313;51.018;13.742;2023-05-02T09:23:43;100113.94;;;14.55;58.22
75699;BME280;64313;51.018;13.742;2023-05-02T09:26:20;100117.19;;;14.63;57.38
75699;BME280;64313;51.018;13.742;2023-05-02T09:28:55;100120.28;;;14.67;56.05
75699;BME280;64313;51.018;13.742;2023-05-02T09:31:24;100131.63;;;14.69;56.92
75699;BME280;64313;51.018;13.742;2023-05-02T09:33:50;100127.47;;;14.73;56.34
75699;BME280;64313;51.018;13.742;2023-05-02T09:36:17;100124.78;;;14.73;55.14
75699;BME280;64313;51.018;13.742;2023-05-02T09:38:44;100122.88;;;14.80;56.22
75699;BME280;64313;51.018;13.742;2023-05-02T09:41:10;100129.25;;;14.86;55.92
75699;BME280;64313;51.018;13.742;2023-05-02T09:43:39;100132.38;;;14.89;56.53
75699;BME280;64313;51.018;13.742;2023-05-02T09:46:09;100126.09;;;14.96;56.82
75699;BME280;64313;51.018;13.742;2023-05-02T09:48:55;100131.44;;;15.02;56.73
75699;BME280;64313;51.018;13.742;2023-05-02T09:51:22;100133.88;;;15.10;57.10
75699;BME280;64313;51.018;13.742;2023-05-02T09:53:47;100135.94;;;15.08;56.35
75699;BME280;64313;51.018;13.742;2023-05-02T09:56:13;100137.59;;;15.09;56.65
75699;BME280;64313;51.018;13.742;2023-05-02T09:58:39;100136.94;;;15.14;56.66
75699;BME280;64313;51.018;13.742;2023-05-02T10:01:04;100134.19;;;15.21;57.06
75699;BME280;64313;51.018;13.742;2023-05-02T10:03:30;100142.88;;;15.23;57.16
75699;BME280;64313;51.018;13.742;2023-05-02T10:05:59;100141.63;;;15.25;57.23
75699;BME280;64313;51.018;13.742;2023-05-02T10:08:26;100147.00;;;15.25;57.43
75699;BME280;64313;51.018;13.742;2023-05-02T10:10:57;100145.78;;;15.21;57.21
75699;BME280;64313;51.018;13.742;2023-05-02T10:13:25;100152.41;;;15.25;57.52
75699;BME280;64313;51.018;13.742;2023-05-02T10:16:05;100158.59;;;15.26;57.09
75699;BME280;64313;51.018;13.742;2023-05-02T10:18:44;100162.13;;;15.26;57.15
75699;BME280;64313;51.018;13.742;2023-05-02T10:21:11;100164.88;;;15.20;56.74
75699;BME280;64313;51.018;13.742;2023-05-02T10:23:41;100157.63;;;15.20;56.46
75699;BME280;64313;51.018;13.742;2023-05-02T10:26:14;100164.63;;;15.21;57.33
75699;BME280;64313;51.018;13.742;2023-05-02T10:28:40;100160.75;;;15.17;57.38
75699;BME280;64313;51.018;13.742;2023-05-02T10:31:09;100165.91;;;15.19;57.84
75699;BME280;64313;51.018;13.742;2023-05-02T10:33:35;100163.81;;;15.21;57.61
75699;BME280;64313;51.018;13.742;2023-05-02T10:36:01;100165.88;;;15.25;58.06
75699;BME280;64313;51.018;13.742;2023-05-02T10:38:26;100169.81;;;15.23;57.50
75699;BME280;64313;51.018;13.742;2023-05-02T10:40:59;100167.72;;;15.25;58.05
75699;BME280;64313;51.018;13.742;2023-05-02T10:43:33;100170.19;;;15.26;58.11
75699;BME280;64313;51.018;13.742;2023-05-02T10:45:59;100172.22;;;15.31;58.13
75699;BME280;64313;51.018;13.742;2023-05-02T10:48:26;100170.34;;;15.31;58.04
75699;BME280;64313;51.018;13.742;2023-05-02T10:50:53;100174.94;;;15.31;58.68
75699;BME280;64313;51.018;13.742;2023-05-02T10:53:24;100173.88;;;15.32;59.01
75699;BME280;64313;51.018;13.742;2023-05-02T10:58:33;100172.59;;;15.34;57.67
75699;BME280;64313;51.018;13.742;2023-05-02T11:03:55;100181.53;;;15.35;57.94
75699;BME280;64313;51.018;13.742;2023-05-02T11:06:21;100176.34;;;15.33;58.12
75699;BME280;64313;51.018;13.742;2023-05-02T11:08:47;100174.94;;;15.31;58.10
75699;BME280;64313;51.018;13.742;2023-05-02T11:11:40;100174.72;;;15.32;58.45
75699;BME280;64313;51.018;13.742;2023-05-02T11:14:07;100177.41;;;15.32;58.53
75699;BME280;64313;51.018;13.742;2023-05-02T11:19:24;100174.94;;;15.31;58.51
75699;BME280;64313;51.018;13.742;2023-05-02T11:21:49;100175.56;;;15.26;58.21
75699;BME280;64313;51.018;13.742;2023-05-02T11:24:40;100186.78;;;15.23;58.54
75699;BME280;64313;51.018;13.742;2023-05-02T11:29:54;100184.06;;;15.30;58.82
75699;BME280;64313;51.018;13.742;2023-05-02T11:32:20;100184.00;;;15.36;58.74
75699;BME280;64313;51.018;13.742;2023-05-02T11:34:47;100177.09;;;15.47;58.61
75699;BME280;64313;51.018;13.742;2023-05-02T11:37:15;100179.06;;;15.58;58.30
75699;BME280;64313;51.018;13.742;2023-05-02T11:39:41;100176.88;;;15.67;57.61
75699;BME280;64313;51.018;13.742;2023-05-02T11:42:06;100184.75;;;15.75;57.99
75699;BME280;64313;51.018;13.742;2023-05-02T11:44:32;100182.81;;;15.83;56.75
75699;BME280;64313;51.018;13.742;2023-05-02T11:46:57;100180.84;;;15.90;56.58
75699;BME280;64313;51.018;13.742;2023-05-02T11:49:22;100181.88;;;15.95;56.39
75699;BME280;64313;51.018;13.742;2023-05-02T11:51:48;100183.66;;;16.01;57.25
75699;BME280;64313;51.018;13.742;2023-05-02T11:54:20;100181.94;;;16.07;55.94
75699;BME280;64313;51.018;13.742;2023-05-02T11:56:48;100183.13;;;16.11;57.15
75699;BME280;64313;51.018;13.742;2023-05-02T11:59:14;100181.66;;;16.15;56.77
75699;BME280;64313;51.018;13.742;2023-05-02T12:01:51;100184.34;;;16.15;56.98
75699;BME280;64313;51.018;13.742;2023-05-02T12:04:17;100183.91;;;16.18;57.28
75699;BME280;64313;51.018;13.742;2023-05-02T12:06:56;100188.22;;;16.19;57.47
75699;BME280;64313;51.018;13.742;2023-05-02T12:09:21;100186.13;;;16.21;57.77
75699;BME280;64313;51.018;13.742;2023-05-02T12:11:53;100192.13;;;16.23;57.07
75699;BME280;64313;51.018;13.742;2023-05-02T12:14:29;100194.84;;;16.23;57.01
75699;BME280;64313;51.018;13.742;2023-05-02T12:16:56;100193.63;;;16.19;56.18
75699;BME280;64313;51.018;13.742;2023-05-02T12:19:22;100192.81;;;16.19;55.32
75699;BME280;64313;51.018;13.742;2023-05-02T12:21:48;100188.22;;;16.19;56.41
75699;BME280;64313;51.018;13.742;2023-05-02T12:24:14;100190.25;;;16.24;55.61
75699;BME280;64313;51.018;13.742;2023-05-02T12:26:39;100181.72;;;16.27;55.84
75699;BME280;64313;51.018;13.742;2023-05-02T12:29:05;100184.34;;;16.34;55.18
75699;BME280;64313;51.018;13.742;2023-05-02T12:31:32;100183.28;;;16.35;56.04
75699;BME280;64313;51.018;13.742;2023-05-02T12:33:58;100192.44;;;16.34;55.63
75699;BME280;64313;51.018;13.742;2023-05-02T12:36:24;100184.03;;;16.23;55.96
75699;BME280;64313;51.018;13.742;2023-05-02T12:38:52;100199.41;;;16.23;55.78
75699;BME280;64313;51.018;13.742;2023-05-02T12:41:33;100194.53;;;16.13;56.02
75699;BME280;64313;51.018;13.742;2023-05-02T12:43:58;100187.25;;;16.14;56.49
75699;BME280;64313;51.018;13.742;2023-05-02T12:46:25;100193.09;;;16.11;55.98
75699;BME280;64313;51.018;13.742;2023-05-02T12:49:08;100184.41;;;16.09;56.36
75699;BME280;64313;51.018;13.742;2023-05-02T12:51:35;100193.31;;;16.09;55.96
75699;BME280;64313;51.018;13.742;2023-05-02T12:54:01;100189.97;;;16.14;56.41
75699;BME280;64313;51.018;13.742;2023-05-02T12:56:27;100186.44;;;16.13;56.21
75699;BME280;64313;51.018;13.742;2023-05-02T12:58:56;100189.13;;;16.13;56.29
75699;BME280;64313;51.018;13.742;2023-05-02T13:01:25;100193.94;;;16.11;56.07
75699;BME280;64313;51.018;13.742;2023-05-02T13:03:51;100200.38;;;16.10;56.28
75699;BME280;64313;51.018;13.742;2023-05-02T13:06:16;100198.97;;;16.08;55.84
75699;BME280;64313;51.018;13.742;2023-05-02T13:08:42;100203.09;;;16.10;55.82
75699;BME280;64313;51.018;13.742;2023-05-02T13:11:08;100200.38;;;16.10;56.40
75699;BME280;64313;51.018;13.742;2023-05-02T13:13:33;100199.53;;;16.10;56.02
75699;BME280;64313;51.018;13.742;2023-05-02T13:15:59;100198.06;;;16.14;55.25